sensor_id;sensor_type;location;lat;lon;timestamp;P1;durP1;ratioP1;P2;durP2;ratioP2
55672;SDS011;41554;45.366;20.400;2022-08-18T00:02:10;6.68;;;5.30;;
55672;SDS011;41554;45.366;20.400;2022-08-18T00:04:37;6.72;;;5.65;;
55672;SDS011;41554;45.366;20.400;2022-08-18T00:07:08;9.68;;;5.55;;
55672;SDS011;41554;45.366;20.400;2022-08-18T00:09:35;11.35;;;5.32;;
55672;SDS011;41554;45.366;20.400;2022-08-18T00:12:03;6.93;;;5.50;;
55672;SDS011;41554;45.366;20.400;2022-08-18T00:14:30;7.90;;;5.43;;
55672;SDS011;41554;45.366;20.400;2022-08-18T00:16:56;7.10;;;5.28;;
55672;SDS011;41554;45.366;20.400;2022-08-18T00:19:22;11.10;;;5.60;;
55672;SDS011;41554;45.366;20.400;2022-08-18T00:21:49;6.40;;;5.07;;
55672;SDS011;41554;45.366;20.400;2022-08-18T00:24:15;7.95;;;5.35;;
55672;SDS011;41554;45.366;20.400;2022-08-18T00:26:41;8.10;;;5.45;;
55672;SDS011;41554;45.366;20.400;2022-08-18T00:29:07;5.15;;;4.63;;
55672;SDS011;41554;45.366;20.400;2022-08-18T00:31:33;9.00;;;5.55;;
55672;SDS011;41554;45.366;20.400;2022-08-18T00:33:59;10.77;;;6.20;;
55672;SDS011;41554;45.366;20.400;2022-08-18T00:36:25;8.50;;;5.82;;
55672;SDS011;41554;45.366;20.400;2022-08-18T00:38:52;6.47;;;5.40;;
55672;SDS011;41554;45.366;20.400;2022-08-18T00:41:18;9.43;;;4.85;;
55672;SDS011;41554;45.366;20.400;2022-08-18T00:43:46;16.83;;;5.78;;
55672;SDS011;41554;45.366;20.400;2022-08-18T00:46:16;9.15;;;6.28;;
55672;SDS011;41554;45.366;20.400;2022-08-18T00:48:43;7.55;;;4.57;;
55672;SDS011;41554;45.366;20.400;2022-08-18T00:51:15;21.73;;;5.63;;
55672;SDS011;41554;45.366;20.400;2022-08-18T00:53:47;6.60;;;5.03;;
55672;SDS011;41554;45.366;20.400;2022-08-18T00:56:16;6.55;;;5.15;;
55672;SDS011;41554;45.366;20.400;2022-08-18T00:58:48;6.05;;;4.25;;
55672;SDS011;41554;45.366;20.400;2022-08-18T01:01:16;8.20;;;5.20;;
55672;SDS011;41554;45.366;20.400;2022-08-18T01:03:44;13.15;;;6.53;;
55672;SDS011;41554;45.366;20.400;2022-08-18T01:06:38;7.20;;;5.15;;
55672;SDS011;41554;45.366;20.400;2022-08-18T01:09:03;6.28;;;5.35;;
55672;SDS011;41554;45.366;20.400;2022-08-18T01:11:29;11.93;;;5.53;;
55672;SDS011;41554;45.366;20.400;2022-08-18T01:13:56;7.82;;;5.00;;
55672;SDS011;41554;45.366;20.400;2022-08-18T01:16:22;8.07;;;6.05;;
55672;SDS011;41554;45.366;20.400;2022-08-18T01:19:07;9.18;;;6.28;;
55672;SDS011;41554;45.366;20.400;2022-08-18T01:21:54;7.40;;;5.72;;
55672;SDS011;41554;45.366;20.400;2022-08-18T01:27:08;9.43;;;6.75;;
55672;SDS011;41554;45.366;20.400;2022-08-18T01:29:34;11.30;;;5.95;;
55672;SDS011;41554;45.366;20.400;2022-08-18T01:32:01;8.52;;;6.60;;
55672;SDS011;41554;45.366;20.400;2022-08-18T01:34:27;13.52;;;7.72;;
55672;SDS011;41554;45.366;20.400;2022-08-18T01:36:53;10.02;;;6.97;;
55672;SDS011;41554;45.366;20.400;2022-08-18T01:39:20;16.90;;;7.32;;
55672;SDS011;41554;45.366;20.400;2022-08-18T01:41:46;10.02;;;6.15;;
55672;SDS011;41554;45.366;20.400;2022-08-18T01:44:12;10.60;;;5.97;;
55672;SDS011;41554;45.366;20.400;2022-08-18T01:46:39;10.48;;;5.88;;
55672;SDS011;41554;45.366;20.400;2022-08-18T01:49:06;6.72;;;5.68;;
55672;SDS011;41554;45.366;20.400;2022-08-18T01:51:32;7.32;;;5.90;;
55672;SDS011;41554;45.366;20.400;2022-08-18T01:53:59;7.45;;;5.47;;
55672;SDS011;41554;45.366;20.400;2022-08-18T01:56:25;17.98;;;7.70;;
55672;SDS011;41554;45.366;20.400;2022-08-18T01:58:51;11.10;;;6.28;;
55672;SDS011;41554;45.366;20.400;2022-08-18T02:01:18;5.93;;;4.97;;
55672;SDS011;41554;45.366;20.400;2022-08-18T02:03:47;7.47;;;5.57;;
55672;SDS011;41554;45.366;20.400;2022-08-18T02:06:15;8.20;;;5.97;;
55672;SDS011;41554;45.366;20.400;2022-08-18T02:08:42;10.23;;;6.97;;
55672;SDS011;41554;45.366;20.400;2022-08-18T02:11:09;12.30;;;7.22;;
55672;SDS011;41554;45.366;20.400;2022-08-18T02:13:35;11.68;;;6.55;;
55672;SDS011;41554;45.366;20.400;2022-08-18T02:16:01;9.43;;;6.95;;
55672;SDS011;41554;45.366;20.400;2022-08-18T02:18:30;9.05;;;6.47;;
55672;SDS011;41554;45.366;20.400;2022-08-18T02:20:57;8.55;;;6.85;;
55672;SDS011;41554;45.366;20.400;2022-08-18T02:23:23;8.68;;;6.70;;
55672;SDS011;41554;45.366;20.400;2022-08-18T02:25:50;14.82;;;6.57;;
55672;SDS011;41554;45.366;20.400;2022-08-18T02:28:16;8.07;;;5.78;;
55672;SDS011;41554;45.366;20.400;2022-08-18T02:30:42;6.97;;;6.28;;
55672;SDS011;41554;45.366;20.400;2022-08-18T02:33:09;8.73;;;6.43;;
55672;SDS011;41554;45.366;20.400;2022-08-18T02:35:36;11.73;;;7.30;;
55672;SDS011;41554;45.366;20.400;2022-08-18T02:38:04;15.82;;;7.13;;
55672;SDS011;41554;45.366;20.400;2022-08-18T02:40:30;14.57;;;8.45;;
55672;SDS011;41554;45.366;20.400;2022-08-18T02:43:08;9.45;;;7.97;;
55672;SDS011;41554;45.366;20.400;2022-08-18T02:45:38;8.52;;;7.28;;
55672;SDS011;41554;45.366;20.400;2022-08-18T02:48:04;8.15;;;6.82;;
55672;SDS011;41554;45.366;20.400;2022-08-18T02:50:30;12.13;;;8.45;;
55672;SDS011;41554;45.366;20.400;2022-08-18T02:52:57;12.93;;;6.78;;
55672;SDS011;41554;45.366;20.400;2022-08-18T02:55:23;11.48;;;8.40;;
55672;SDS011;41554;45.366;20.400;2022-08-18T02:57:51;11.13;;;9.05;;
55672;SDS011;41554;45.366;20.400;2022-08-18T03:00:17;12.10;;;8.48;;
55672;SDS011;41554;45.366;20.400;2022-08-18T03:02:47;10.95;;;7.82;;
55672;SDS011;41554;45.366;20.400;2022-08-18T03:05:15;10.98;;;9.07;;
55672;SDS011;41554;45.366;20.400;2022-08-18T03:07:41;9.57;;;7.95;;
55672;SDS011;41554;45.366;20.400;2022-08-18T03:10:07;15.43;;;8.02;;
55672;SDS011;41554;45.366;20.400;2022-08-18T03:12:34;15.55;;;8.57;;
55672;SDS011;41554;45.366;20.400;2022-08-18T03:15:00;10.38;;;8.30;;
55672;SDS011;41554;45.366;20.400;2022-08-18T03:17:27;12.25;;;9.07;;
55672;SDS011;41554;45.366;20.400;2022-08-18T03:19:53;12.55;;;9.50;;
55672;SDS011;41554;45.366;20.400;2022-08-18T03:22:19;23.08;;;10.98;;
55672;SDS011;41554;45.366;20.400;2022-08-18T03:24:45;12.63;;;7.50;;
55672;SDS011;41554;45.366;20.400;2022-08-18T03:27:11;10.93;;;8.93;;
55672;SDS011;41554;45.366;20.400;2022-08-18T03:29:37;13.98;;;8.60;;
55672;SDS011;41554;45.366;20.400;2022-08-18T03:32:04;11.63;;;9.00;;
55672;SDS011;41554;45.366;20.400;2022-08-18T03:34:31;8.50;;;7.43;;
55672;SDS011;41554;45.366;20.400;2022-08-18T03:36:57;11.95;;;9.73;;
55672;SDS011;41554;45.366;20.400;2022-08-18T03:39:24;17.67;;;9.00;;
55672;SDS011;41554;45.366;20.400;2022-08-18T03:41:51;10.30;;;7.75;;
55672;SDS011;41554;45.366;20.400;2022-08-18T03:44:18;20.42;;;8.73;;
55672;SDS011;41554;45.366;20.400;2022-08-18T03:46:44;14.68;;;9.35;;
55672;SDS011;41554;45.366;20.400;2022-08-18T03:49:11;15.98;;;7.93;;
55672;SDS011;41554;45.366;20.400;2022-08-18T03:51:37;10.70;;;7.82;;
55672;SDS011;41554;45.366;20.400;2022-08-18T03:54:04;14.02;;;7.97;;
55672;SDS011;41554;45.366;20.400;2022-08-18T03:56:32;15.85;;;9.07;;
55672;SDS011;41554;45.366;20.400;2022-08-18T03:58:59;16.40;;;10.57;;
55672;SDS011;41554;45.366;20.400;2022-08-18T04:01:27;12.38;;;9.77;;
55672;SDS011;41554;45.366;20.400;2022-08-18T04:03:55;20.42;;;9.93;;
55672;SDS011;41554;45.366;20.400;2022-08-18T04:06:22;11.23;;;9.05;;
55672;SDS011;41554;45.366;20.400;2022-08-18T04:08:50;18.60;;;10.32;;
55672;SDS011;41554;45.366;20.400;2022-08-18T04:11:16;24.48;;;8.80;;
55672;SDS011;41554;45.366;20.400;2022-08-18T04:13:42;21.75;;;9.27;;
55672;SDS011;41554;45.366;20.400;2022-08-18T04:16:08;13.07;;;8.43;;
55672;SDS011;41554;45.366;20.400;2022-08-18T04:18:35;21.73;;;8.90;;
55672;SDS011;41554;45.366;20.400;2022-08-18T04:21:02;11.40;;;9.98;;
55672;SDS011;41554;45.366;20.400;2022-08-18T04:23:28;10.80;;;7.85;;
55672;SDS011;41554;45.366;20.400;2022-08-18T04:25:57;11.60;;;8.07;;
55672;SDS011;41554;45.366;20.400;2022-08-18T04:30:50;12.75;;;8.50;;
55672;SDS011;41554;45.366;20.400;2022-08-18T04:33:16;10.73;;;7.57;;
55672;SDS011;41554;45.366;20.400;2022-08-18T04:35:42;12.10;;;8.05;;
55672;SDS011;41554;45.366;20.400;2022-08-18T04:38:10;18.08;;;10.52;;
55672;SDS011;41554;45.366;20.400;2022-08-18T04:40:36;16.00;;;8.15;;
55672;SDS011;41554;45.366;20.400;2022-08-18T04:43:02;12.52;;;7.93;;
55672;SDS011;41554;45.366;20.400;2022-08-18T04:45:29;13.73;;;8.43;;
55672;SDS011;41554;45.366;20.400;2022-08-18T04:47:55;12.57;;;9.10;;
55672;SDS011;41554;45.366;20.400;2022-08-18T04:50:22;13.00;;;9.43;;
55672;SDS011;41554;45.366;20.400;2022-08-18T04:52:48;13.57;;;9.60;;
55672;SDS011;41554;45.366;20.400;2022-08-18T04:55:33;21.55;;;8.40;;
55672;SDS011;41554;45.366;20.400;2022-08-18T04:57:59;11.60;;;8.25;;
55672;SDS011;41554;45.366;20.400;2022-08-18T05:00:25;10.98;;;8.65;;
55672;SDS011;41554;45.366;20.400;2022-08-18T05:02:51;13.45;;;8.80;;
55672;SDS011;41554;45.366;20.400;2022-08-18T05:05:18;14.50;;;8.80;;
55672;SDS011;41554;45.366;20.400;2022-08-18T05:07:44;11.75;;;7.57;;
55672;SDS011;41554;45.366;20.400;2022-08-18T05:10:11;11.95;;;10.00;;
55672;SDS011;41554;45.366;20.400;2022-08-18T05:12:38;13.38;;;8.38;;
55672;SDS011;41554;45.366;20.400;2022-08-18T05:15:06;17.07;;;10.23;;
55672;SDS011;41554;45.366;20.400;2022-08-18T05:17:35;11.63;;;8.38;;
55672;SDS011;41554;45.366;20.400;2022-08-18T05:20:03;11.48;;;8.18;;
55672;SDS011;41554;45.366;20.400;2022-08-18T05:22:30;11.90;;;8.20;;
55672;SDS011;41554;45.366;20.400;2022-08-18T05:25:01;15.75;;;9.38;;
55672;SDS011;41554;45.366;20.400;2022-08-18T05:27:34;12.65;;;8.95;;
55672;SDS011;41554;45.366;20.400;2022-08-18T05:30:00;11.82;;;8.68;;
55672;SDS011;41554;45.366;20.400;2022-08-18T05:32:27;19.92;;;8.60;;
55672;SDS011;41554;45.366;20.400;2022-08-18T05:34:57;24.55;;;9.82;;
55672;SDS011;41554;45.366;20.400;2022-08-18T05:37:28;18.90;;;8.32;;
55672;SDS011;41554;45.366;20.400;2022-08-18T05:40:05;13.80;;;7.43;;
55672;SDS011;41554;45.366;20.400;2022-08-18T05:42:36;12.38;;;8.05;;
55672;SDS011;41554;45.366;20.400;2022-08-18T05:45:03;9.50;;;8.18;;
55672;SDS011;41554;45.366;20.400;2022-08-18T05:47:31;15.43;;;8.90;;
55672;SDS011;41554;45.366;20.400;2022-08-18T05:50:07;18.63;;;8.48;;
55672;SDS011;41554;45.366;20.400;2022-08-18T05:52:38;8.65;;;7.10;;
55672;SDS011;41554;45.366;20.400;2022-08-18T05:55:07;13.35;;;7.63;;
55672;SDS011;41554;45.366;20.400;2022-08-18T05:58:04;21.00;;;8.23;;
55672;SDS011;41554;45.366;20.400;2022-08-18T06:00:31;14.88;;;9.20;;
55672;SDS011;41554;45.366;20.400;2022-08-18T06:03:17;13.57;;;7.32;;
55672;SDS011;41554;45.366;20.400;2022-08-18T06:08:12;23.63;;;8.93;;
55672;SDS011;41554;45.366;20.400;2022-08-18T06:10:48;25.95;;;9.63;;
55672;SDS011;41554;45.366;20.400;2022-08-18T06:13:15;10.65;;;7.63;;
55672;SDS011;41554;45.366;20.400;2022-08-18T06:20:56;11.65;;;7.70;;
55672;SDS011;41554;45.366;20.400;2022-08-18T06:29:19;16.67;;;8.23;;
55672;SDS011;41554;45.366;20.400;2022-08-18T06:39:42;13.88;;;8.00;;
55672;SDS011;41554;45.366;20.400;2022-08-18T06:42:09;9.35;;;6.95;;
55672;SDS011;41554;45.366;20.400;2022-08-18T06:49:52;13.05;;;6.53;;
55672;SDS011;41554;45.366;20.400;2022-08-18T06:52:20;12.45;;;6.93;;
55672;SDS011;41554;45.366;20.400;2022-08-18T06:54:47;11.65;;;7.82;;
55672;SDS011;41554;45.366;20.400;2022-08-18T06:57:23;15.38;;;7.45;;
55672;SDS011;41554;45.366;20.400;2022-08-18T06:59:55;8.93;;;5.32;;
55672;SDS011;41554;45.366;20.400;2022-08-18T07:02:36;10.43;;;8.20;;
55672;SDS011;41554;45.366;20.400;2022-08-18T07:05:14;10.45;;;6.38;;
55672;SDS011;41554;45.366;20.400;2022-08-18T07:07:43;9.55;;;7.50;;
55672;SDS011;41554;45.366;20.400;2022-08-18T07:12:38;19.95;;;6.72;;
55672;SDS011;41554;45.366;20.400;2022-08-18T07:15:04;9.32;;;6.95;;
55672;SDS011;41554;45.366;20.400;2022-08-18T07:17:35;7.90;;;6.13;;
55672;SDS011;41554;45.366;20.400;2022-08-18T07:22:28;8.90;;;5.90;;
55672;SDS011;41554;45.366;20.400;2022-08-18T07:24:55;8.52;;;6.97;;
55672;SDS011;41554;45.366;20.400;2022-08-18T07:27:39;11.55;;;6.10;;
55672;SDS011;41554;45.366;20.400;2022-08-18T07:32:50;12.60;;;8.77;;
55672;SDS011;41554;45.366;20.400;2022-08-18T07:35:23;9.77;;;7.20;;
55672;SDS011;41554;45.366;20.400;2022-08-18T07:37:53;10.40;;;6.95;;
55672;SDS011;41554;45.366;20.400;2022-08-18T07:40:31;13.73;;;7.53;;
55672;SDS011;41554;45.366;20.400;2022-08-18T07:43:36;12.35;;;6.75;;
55672;SDS011;41554;45.366;20.400;2022-08-18T07:45:52;8.48;;;7.03;;
55672;SDS011;41554;45.366;20.400;2022-08-18T07:48:24;7.30;;;6.55;;
55672;SDS011;41554;45.366;20.400;2022-08-18T07:56:04;9.57;;;6.45;;
55672;SDS011;41554;45.366;20.400;2022-08-18T07:58:33;13.57;;;6.25;;
55672;SDS011;41554;45.366;20.400;2022-08-18T08:03:41;11.10;;;6.82;;
55672;SDS011;41554;45.366;20.400;2022-08-18T08:13:52;11.95;;;5.82;;
55672;SDS011;41554;45.366;20.400;2022-08-18T08:21:36;9.45;;;6.10;;
55672;SDS011;41554;45.366;20.400;2022-08-18T08:31:56;11.07;;;5.60;;
55672;SDS011;41554;45.366;20.400;2022-08-18T08:37:00;7.70;;;5.50;;
55672;SDS011;41554;45.366;20.400;2022-08-18T08:39:35;7.63;;;5.72;;
55672;SDS011;41554;45.366;20.400;2022-08-18T08:42:28;14.50;;;5.22;;
55672;SDS011;41554;45.366;20.400;2022-08-18T08:44:51;7.22;;;5.90;;
55672;SDS011;41554;45.366;20.400;2022-08-18T08:47:20;9.60;;;6.53;;
55672;SDS011;41554;45.366;20.400;2022-08-18T08:54:50;11.43;;;6.55;;
55672;SDS011;41554;45.366;20.400;2022-08-18T08:57:18;10.77;;;5.30;;
55672;SDS011;41554;45.366;20.400;2022-08-18T08:59:47;8.68;;;5.43;;
55672;SDS011;41554;45.366;20.400;2022-08-18T09:02:23;13.57;;;4.90;;
55672;SDS011;41554;45.366;20.400;2022-08-18T09:05:38;6.35;;;4.80;;
55672;SDS011;41554;45.366;20.400;2022-08-18T09:10:59;5.78;;;5.25;;
55672;SDS011;41554;45.366;20.400;2022-08-18T09:21:46;6.00;;;4.88;;
55672;SDS011;41554;45.366;20.400;2022-08-18T09:34:57;8.18;;;4.70;;
55672;SDS011;41554;45.366;20.400;2022-08-18T09:37:26;15.77;;;6.63;;
55672;SDS011;41554;45.366;20.400;2022-08-18T09:40:15;7.55;;;5.53;;
55672;SDS011;41554;45.366;20.400;2022-08-18T09:43:28;5.25;;;4.53;;
55672;SDS011;41554;45.366;20.400;2022-08-18T09:45:57;9.77;;;6.28;;
55672;SDS011;41554;45.366;20.400;2022-08-18T09:48:27;18.50;;;5.97;;
55672;SDS011;41554;45.366;20.400;2022-08-18T09:53:35;6.43;;;4.80;;
55672;SDS011;41554;45.366;20.400;2022-08-18T09:56:02;4.93;;;4.28;;
55672;SDS011;41554;45.366;20.400;2022-08-18T10:01:17;8.05;;;4.30;;
55672;SDS011;41554;45.366;20.400;2022-08-18T10:03:52;7.90;;;4.90;;
55672;SDS011;41554;45.366;20.400;2022-08-18T10:06:30;9.25;;;5.28;;
55672;SDS011;41554;45.366;20.400;2022-08-18T10:09:00;13.27;;;8.07;;
55672;SDS011;41554;45.366;20.400;2022-08-18T10:24:18;12.23;;;4.27;;
55672;SDS011;41554;45.366;20.400;2022-08-18T10:37:03;10.55;;;4.82;;
55672;SDS011;41554;45.366;20.400;2022-08-18T10:44:29;13.68;;;6.68;;
55672;SDS011;41554;45.366;20.400;2022-08-18T10:46:57;8.82;;;4.53;;
55672;SDS011;41554;45.366;20.400;2022-08-18T10:49:25;9.52;;;4.53;;
55672;SDS011;41554;45.366;20.400;2022-08-18T10:57:12;5.97;;;4.20;;
55672;SDS011;41554;45.366;20.400;2022-08-18T10:59:42;8.00;;;5.45;;
55672;SDS011;41554;45.366;20.400;2022-08-18T11:09:40;5.30;;;3.93;;
55672;SDS011;41554;45.366;20.400;2022-08-18T11:12:07;5.60;;;4.35;;
55672;SDS011;41554;45.366;20.400;2022-08-18T11:14:49;6.32;;;4.88;;
55672;SDS011;41554;45.366;20.400;2022-08-18T11:17:38;6.90;;;4.80;;
55672;SDS011;41554;45.366;20.400;2022-08-18T11:20:08;6.90;;;5.30;;
55672;SDS011;41554;45.366;20.400;2022-08-18T11:22:35;14.43;;;5.20;;
55672;SDS011;41554;45.366;20.400;2022-08-18T11:25:03;12.75;;;4.45;;
55672;SDS011;41554;45.366;20.400;2022-08-18T11:27:43;6.82;;;5.30;;
55672;SDS011;41554;45.366;20.400;2022-08-18T11:32:37;17.20;;;6.45;;
55672;SDS011;41554;45.366;20.400;2022-08-18T11:42:57;4.82;;;3.53;;
55672;SDS011;41554;45.366;20.400;2022-08-18T11:45:32;4.60;;;3.33;;
55672;SDS011;41554;45.366;20.400;2022-08-18T11:48:09;23.15;;;5.43;;
55672;SDS011;41554;45.366;20.400;2022-08-18T11:50:44;5.95;;;4.25;;
55672;SDS011;41554;45.366;20.400;2022-08-18T11:53:13;5.22;;;3.90;;
55672;SDS011;41554;45.366;20.400;2022-08-18T11:55:39;6.28;;;3.85;;
55672;SDS011;41554;45.366;20.400;2022-08-18T11:58:05;6.05;;;4.13;;
55672;SDS011;41554;45.366;20.400;2022-08-18T12:01:04;7.07;;;3.97;;
55672;SDS011;41554;45.366;20.400;2022-08-18T12:03:36;5.95;;;4.22;;
55672;SDS011;41554;45.366;20.400;2022-08-18T12:06:21;8.35;;;3.78;;
55672;SDS011;41554;45.366;20.400;2022-08-18T12:11:21;9.52;;;4.70;;
55672;SDS011;41554;45.366;20.400;2022-08-18T12:13:56;13.70;;;3.97;;
55672;SDS011;41554;45.366;20.400;2022-08-18T12:16:39;4.38;;;3.90;;
55672;SDS011;41554;45.366;20.400;2022-08-18T12:19:06;6.70;;;4.35;;
55672;SDS011;41554;45.366;20.400;2022-08-18T12:21:37;8.25;;;3.75;;
55672;SDS011;41554;45.366;20.400;2022-08-18T12:24:03;6.03;;;4.68;;
55672;SDS011;41554;45.366;20.400;2022-08-18T12:26:30;15.57;;;5.38;;
55672;SDS011;41554;45.366;20.400;2022-08-18T12:28:56;14.88;;;6.35;;
55672;SDS011;41554;45.366;20.400;2022-08-18T12:31:22;6.43;;;4.55;;
55672;SDS011;41554;45.366;20.400;2022-08-18T12:33:48;18.27;;;6.68;;
55672;SDS011;41554;45.366;20.400;2022-08-18T12:36:14;5.63;;;4.60;;
55672;SDS011;41554;45.366;20.400;2022-08-18T12:38:40;8.80;;;3.88;;
55672;SDS011;41554;45.366;20.400;2022-08-18T12:41:08;7.20;;;4.40;;
55672;SDS011;41554;45.366;20.400;2022-08-18T12:43:36;6.97;;;3.75;;
55672;SDS011;41554;45.366;20.400;2022-08-18T12:46:02;6.72;;;4.55;;
55672;SDS011;41554;45.366;20.400;2022-08-18T12:48:28;8.95;;;4.00;;
55672;SDS011;41554;45.366;20.400;2022-08-18T12:50:55;5.80;;;4.22;;
55672;SDS011;41554;45.366;20.400;2022-08-18T12:53:22;7.40;;;4.55;;
55672;SDS011;41554;45.366;20.400;2022-08-18T12:55:49;9.98;;;4.22;;
55672;SDS011;41554;45.366;20.400;2022-08-18T12:58:16;9.82;;;4.50;;
55672;SDS011;41554;45.366;20.400;2022-08-18T13:00:42;5.38;;;4.05;;
55672;SDS011;41554;45.366;20.400;2022-08-18T13:03:08;4.47;;;3.63;;
55672;SDS011;41554;45.366;20.400;2022-08-18T13:05:34;4.75;;;3.50;;
55672;SDS011;41554;45.366;20.400;2022-08-18T13:08:02;8.43;;;5.13;;
55672;SDS011;41554;45.366;20.400;2022-08-18T13:10:28;10.43;;;4.45;;
55672;SDS011;41554;45.366;20.400;2022-08-18T13:12:54;10.68;;;5.00;;
55672;SDS011;41554;45.366;20.400;2022-08-18T13:15:20;7.32;;;4.22;;
55672;SDS011;41554;45.366;20.400;2022-08-18T13:17:48;8.68;;;5.05;;
55672;SDS011;41554;45.366;20.400;2022-08-18T13:20:15;7.43;;;4.00;;
55672;SDS011;41554;45.366;20.400;2022-08-18T13:22:42;5.18;;;4.45;;
55672;SDS011;41554;45.366;20.400;2022-08-18T13:25:12;4.72;;;4.20;;
55672;SDS011;41554;45.366;20.400;2022-08-18T13:27:39;5.10;;;3.78;;
55672;SDS011;41554;45.366;20.400;2022-08-18T13:30:07;11.45;;;4.38;;
55672;SDS011;41554;45.366;20.400;2022-08-18T13:32:34;4.57;;;4.03;;
55672;SDS011;41554;45.366;20.400;2022-08-18T13:35:01;5.18;;;4.13;;
55672;SDS011;41554;45.366;20.400;2022-08-18T13:37:27;8.45;;;4.55;;
55672;SDS011;41554;45.366;20.400;2022-08-18T13:39:56;9.98;;;4.30;;
55672;SDS011;41554;45.366;20.400;2022-08-18T13:42:23;6.05;;;4.18;;
55672;SDS011;41554;45.366;20.400;2022-08-18T13:44:49;13.70;;;6.60;;
55672;SDS011;41554;45.366;20.400;2022-08-18T13:47:15;11.20;;;5.43;;
55672;SDS011;41554;45.366;20.400;2022-08-18T13:49:41;5.88;;;4.20;;
55672;SDS011;41554;45.366;20.400;2022-08-18T13:52:07;4.80;;;4.13;;
55672;SDS011;41554;45.366;20.400;2022-08-18T13:54:35;9.63;;;4.80;;
55672;SDS011;41554;45.366;20.400;2022-08-18T13:57:02;6.93;;;4.28;;
55672;SDS011;41554;45.366;20.400;2022-08-18T13:59:28;8.80;;;5.47;;
55672;SDS011;41554;45.366;20.400;2022-08-18T14:01:59;6.43;;;4.38;;
55672;SDS011;41554;45.366;20.400;2022-08-18T14:04:25;8.05;;;5.32;;
55672;SDS011;41554;45.366;20.400;2022-08-18T14:06:52;7.68;;;4.72;;
55672;SDS011;41554;45.366;20.400;2022-08-18T14:09:19;5.47;;;4.03;;
55672;SDS011;41554;45.366;20.400;2022-08-18T14:11:45;7.85;;;4.28;;
55672;SDS011;41554;45.366;20.400;2022-08-18T14:14:13;5.82;;;3.40;;
55672;SDS011;41554;45.366;20.400;2022-08-18T14:16:39;7.72;;;4.60;;
55672;SDS011;41554;45.366;20.400;2022-08-18T14:19:04;5.32;;;3.85;;
55672;SDS011;41554;45.366;20.400;2022-08-18T14:21:50;10.85;;;3.72;;
55672;SDS011;41554;45.366;20.400;2022-08-18T14:24:36;6.90;;;4.38;;
55672;SDS011;41554;45.366;20.400;2022-08-18T14:27:28;5.28;;;4.45;;
55672;SDS011;41554;45.366;20.400;2022-08-18T14:29:58;11.10;;;5.38;;
55672;SDS011;41554;45.366;20.400;2022-08-18T14:32:25;11.20;;;4.50;;
55672;SDS011;41554;45.366;20.400;2022-08-18T14:34:53;5.25;;;4.68;;
55672;SDS011;41554;45.366;20.400;2022-08-18T14:37:20;7.25;;;4.38;;
55672;SDS011;41554;45.366;20.400;2022-08-18T14:39:46;8.73;;;4.22;;
55672;SDS011;41554;45.366;20.400;2022-08-18T14:42:13;8.70;;;5.18;;
55672;SDS011;41554;45.366;20.400;2022-08-18T14:44:39;6.63;;;4.13;;
55672;SDS011;41554;45.366;20.400;2022-08-18T14:47:05;13.18;;;4.78;;
55672;SDS011;41554;45.366;20.400;2022-08-18T14:49:31;7.53;;;4.53;;
55672;SDS011;41554;45.366;20.400;2022-08-18T14:51:58;6.05;;;4.28;;
55672;SDS011;41554;45.366;20.400;2022-08-18T14:54:24;5.28;;;3.45;;
55672;SDS011;41554;45.366;20.400;2022-08-18T14:56:50;16.75;;;4.00;;
55672;SDS011;41554;45.366;20.400;2022-08-18T14:59:16;6.95;;;3.85;;
55672;SDS011;41554;45.366;20.400;2022-08-18T15:01:42;4.95;;;4.45;;
55672;SDS011;41554;45.366;20.400;2022-08-18T15:04:07;6.25;;;4.45;;
55672;SDS011;41554;45.366;20.400;2022-08-18T15:06:35;6.97;;;4.93;;
55672;SDS011;41554;45.366;20.400;2022-08-18T15:09:01;6.10;;;3.65;;
55672;SDS011;41554;45.366;20.400;2022-08-18T15:11:27;10.98;;;4.30;;
55672;SDS011;41554;45.366;20.400;2022-08-18T15:13:53;8.43;;;5.30;;
55672;SDS011;41554;45.366;20.400;2022-08-18T15:16:19;8.25;;;3.92;;
55672;SDS011;41554;45.366;20.400;2022-08-18T15:18:47;5.50;;;3.40;;
55672;SDS011;41554;45.366;20.400;2022-08-18T15:21:13;5.47;;;4.55;;
55672;SDS011;41554;45.366;20.400;2022-08-18T15:23:58;6.68;;;4.30;;
55672;SDS011;41554;45.366;20.400;2022-08-18T15:26:42;6.00;;;4.35;;
55672;SDS011;41554;45.366;20.400;2022-08-18T15:29:08;8.80;;;4.25;;
55672;SDS011;41554;45.366;20.400;2022-08-18T15:31:35;5.82;;;4.57;;
55672;SDS011;41554;45.366;20.400;2022-08-18T15:34:02;8.65;;;3.75;;
55672;SDS011;41554;45.366;20.400;2022-08-18T15:36:29;6.57;;;4.45;;
55672;SDS011;41554;45.366;20.400;2022-08-18T15:38:59;5.43;;;4.80;;
55672;SDS011;41554;45.366;20.400;2022-08-18T15:41:35;6.10;;;4.80;;
55672;SDS011;41554;45.366;20.400;2022-08-18T15:44:03;7.35;;;4.15;;
55672;SDS011;41554;45.366;20.400;2022-08-18T15:46:32;6.57;;;4.10;;
55672;SDS011;41554;45.366;20.400;2022-08-18T15:48:59;6.00;;;4.15;;
55672;SDS011;41554;45.366;20.400;2022-08-18T15:51:25;10.38;;;4.93;;
55672;SDS011;41554;45.366;20.400;2022-08-18T15:53:51;6.80;;;4.35;;
55672;SDS011;41554;45.366;20.400;2022-08-18T15:56:19;9.10;;;4.53;;
55672;SDS011;41554;45.366;20.400;2022-08-18T15:58:47;15.32;;;5.13;;
55672;SDS011;41554;45.366;20.400;2022-08-18T16:01:14;6.43;;;4.50;;
55672;SDS011;41554;45.366;20.400;2022-08-18T16:03:40;11.05;;;4.35;;
55672;SDS011;41554;45.366;20.400;2022-08-18T16:06:06;9.38;;;4.50;;
55672;SDS011;41554;45.366;20.400;2022-08-18T16:08:43;9.77;;;5.78;;
55672;SDS011;41554;45.366;20.400;2022-08-18T16:11:10;14.02;;;4.93;;
55672;SDS011;41554;45.366;20.400;2022-08-18T16:13:38;8.15;;;3.70;;
55672;SDS011;41554;45.366;20.400;2022-08-18T16:16:08;7.63;;;4.32;;
55672;SDS011;41554;45.366;20.400;2022-08-18T16:18:36;6.63;;;4.18;;
55672;SDS011;41554;45.366;20.400;2022-08-18T16:21:03;12.00;;;4.20;;
55672;SDS011;41554;45.366;20.400;2022-08-18T16:23:36;8.35;;;4.72;;
55672;SDS011;41554;45.366;20.400;2022-08-18T16:26:03;6.50;;;5.10;;
55672;SDS011;41554;45.366;20.400;2022-08-18T16:28:29;5.03;;;4.50;;
55672;SDS011;41554;45.366;20.400;2022-08-18T16:30:55;5.78;;;4.28;;
55672;SDS011;41554;45.366;20.400;2022-08-18T16:33:21;11.30;;;4.57;;
55672;SDS011;41554;45.366;20.400;2022-08-18T16:35:47;7.30;;;5.07;;
55672;SDS011;41554;45.366;20.400;2022-08-18T16:38:15;7.43;;;5.88;;
55672;SDS011;41554;45.366;20.400;2022-08-18T16:40:41;8.73;;;5.20;;
55672;SDS011;41554;45.366;20.400;2022-08-18T16:43:07;7.65;;;4.93;;
55672;SDS011;41554;45.366;20.400;2022-08-18T16:45:38;15.07;;;5.53;;
55672;SDS011;41554;45.366;20.400;2022-08-18T16:48:07;8.60;;;5.00;;
55672;SDS011;41554;45.366;20.400;2022-08-18T16:50:34;6.25;;;3.80;;
55672;SDS011;41554;45.366;20.400;2022-08-18T16:53:01;7.68;;;4.40;;
55672;SDS011;41554;45.366;20.400;2022-08-18T16:55:28;5.07;;;4.28;;
55672;SDS011;41554;45.366;20.400;2022-08-18T16:57:55;7.45;;;4.40;;
55672;SDS011;41554;45.366;20.400;2022-08-18T17:00:39;6.88;;;4.28;;
55672;SDS011;41554;45.366;20.400;2022-08-18T17:03:23;6.90;;;4.18;;
55672;SDS011;41554;45.366;20.400;2022-08-18T17:06:09;8.65;;;4.68;;
55672;SDS011;41554;45.366;20.400;2022-08-18T17:08:36;7.65;;;4.70;;
55672;SDS011;41554;45.366;20.400;2022-08-18T17:11:04;9.25;;;5.25;;
55672;SDS011;41554;45.366;20.400;2022-08-18T17:13:33;10.48;;;4.88;;
55672;SDS011;41554;45.366;20.400;2022-08-18T17:16:00;9.32;;;4.75;;
55672;SDS011;41554;45.366;20.400;2022-08-18T17:18:27;11.57;;;4.70;;